Lobachsville, Pennsylvania
Current Conditions -  °F | °C
As of 8:47 PM on Wednesday 22 Oct 2014 (Local Time) from KRDG Reporting Station
Light Rain Light Rain  
Wind Chill: 50°   Ceiling: 5000
Heat Index: 50°   Visibility: 10mi
Dew Point: 46°   Wind: 15mph
Humidity: 86%   Direction: 340°NNW
Pressure: 29.9"   Gusts: 24mph
Location:  40.3836°N, 75.7884°W
Report Text: KRDG 230047Z 34013G21KT 10SM -RA SCT027 SCT039 OVC050 10/08 A2990 RMK AO2 P0000 T01000078
Loading
Personal Weather Stations






























Interactive Weather Map
Tropical Storm Tracking
New forecast layout! Learn more

10-Day Weather Forecast

Advertisements
Track Severe Weather on mobile